Date,TemperatureHighF,TemperatureAvgF,TemperatureLowF,DewpointHighF,DewpointAvgF,DewpointLowF,HumidityHigh,HumidityAvg,HumidityLow,PressureMaxIn,PressureMinIn,WindSpeedMaxMPH,WindSpeedAvgMPH,GustSpeedMaxMPH,PrecipitationSumIn
2013-3-1,34,33,32,33,32,30,98,95,89,29.66,29.52,15,7,22,0.04
2013-3-2,36,33,31,33,31,29,98,91,77,29.65,29.60,16,8,22,0.05
2013-3-3,41,36,33,34,32,29,96,85,69,29.61,29.51,20,6,21,0.02
2013-3-4,35,33,31,32,29,26,94,86,76,29.66,29.48,21,11,24,0.01
2013-3-5,43,37,34,35,33,32,93,85,67,30.13,29.67,18,10,24,0.01
2013-3-6,38,35,33,33,30,27,91,82,76,30.28,30.14,26,7,32,0.01
2013-3-7,38,35,33,28,27,26,80,74,64,30.23,30.08,30,17,37,0.00
2013-3-8,48,38,30,29,25,21,94,62,36,30.20,30.04,31,15,36,0.00
2013-3-9,42,36,30,30,27,24,82,70,56,30.39,30.20,16,8,26,0.00
2013-3-10,36,32,26,32,28,24,92,84,75,30.46,30.33,12,5,14,0.00
2013-3-11,42,39,36,41,37,33,96,90,86,30.35,30.20,20,9,23,0.00
2013-3-12,48,45,42,46,44,40,98,94,88,30.20,29.82,22,10,31,0.31
2013-3-13,48,44,36,48,41,28,99,88,67,29.79,29.66,20,8,34,0.12
2013-3-14,42,34,22,31,26,16,94,74,51,29.72,29.62,24,7,30,0.00
2013-3-15,35,26,18,20,13,8,79,59,34,29.79,29.62,24,9,28,0.00
2013-3-16,35,29,24,23,15,9,87,59,35,29.91,29.63,18,6,23,0.00
2013-3-17,31,25,17,14,6,-3,81,47,28,30.32,29.91,27,10,36,0.00
2013-3-18,34,23,11,19,5,-2,71,48,23,30.46,30.31,16,4,23,0.00
2013-3-19,33,29,25,29,25,16,96,88,59,30.32,29.63,24,8,30,0.00
2013-3-20,35,28,20,28,23,18,93,82,66,29.73,29.60,15,8,30,0.03
2013-3-21,40,32,25,29,22,13,90,69,36,29.79,29.62,10,4,16,0.00
2013-3-22,39,31,23,24,19,15,92,65,39,29.65,29.59,15,6,23,0.00
2013-3-23,40,34,26,26,21,18,71,61,47,29.64,29.47,31,12,34,0.00
2013-3-24,45,38,32,27,25,23,77,61,43,29.79,29.62,26,8,28,0.00
2013-3-25,43,37,28,33,30,25,90,76,64,29.78,29.60,15,5,20,0.00
2013-3-26,47,40,32,30,26,24,75,60,42,29.72,29.55,15,7,27,0.00
2013-3-27,42,38,33,38,33,27,91,81,69,29.86,29.70,15,6,22,0.79
2013-3-28,49,41,35,34,32,29,86,73,52,29.97,29.86,13,5,15,0.00
2013-3-29,51,44,37,36,33,30,84,66,48,30.01,29.94,15,5,24,0.00
2013-3-30,51,41,33,34,28,17,84,63,26,30.09,29.98,16,3,25,0.00
2013-3-31,51,39,27,38,26,17,87,63,27,30.14,29.90,9,2,18,0.00